createdAt,value
2023-01-02T00:14:16.457Z,93
2023-01-02T00:34:17.120Z,93
2023-01-02T00:54:18.234Z,93
2023-01-02T01:04:19.027Z,93
2023-01-02T01:14:19.623Z,92
2023-01-02T01:34:20.352Z,90
2023-01-02T01:54:21.671Z,91
2023-01-02T02:04:22.608Z,92
2023-01-02T02:34:24.083Z,94
2023-01-02T02:44:24.533Z,94
2023-01-02T03:14:26.686Z,95
2023-01-02T03:24:27.087Z,95
2023-01-02T03:34:27.819Z,95
2023-01-02T03:44:28.789Z,95
2023-01-02T03:54:29.276Z,95
2023-01-02T04:04:29.401Z,95
2023-01-02T04:14:29.587Z,95
2023-01-02T04:24:29.942Z,96
2023-01-02T04:34:31.020Z,96
2023-01-02T05:24:33.070Z,95
2023-01-02T05:54:34.656Z,94
2023-01-02T06:44:37.524Z,95
2023-01-02T06:54:37.638Z,95
2023-01-02T07:04:38.542Z,95
2023-01-02T07:14:39.452Z,95
2023-01-02T07:24:39.876Z,95
2023-01-02T07:34:40.718Z,95
2023-01-02T07:44:41.650Z,95
2023-01-02T08:14:43.860Z,95
2023-01-02T08:24:44.872Z,95
2023-01-02T08:34:45.252Z,95
2023-01-02T08:44:45.840Z,95
2023-01-02T08:54:46.444Z,96
2023-01-02T09:04:47.119Z,96
2023-01-02T09:24:48.456Z,96
2023-01-02T09:34:49.359Z,96
2023-01-02T09:44:50.027Z,96
2023-01-02T09:54:51.062Z,96
2023-01-02T10:04:52.051Z,96
2023-01-02T10:14:52.483Z,96
2023-01-02T10:24:52.952Z,96
2023-01-02T10:34:53.322Z,96
2023-01-02T10:44:53.613Z,96
2023-01-02T10:54:59.381Z,96
2023-01-02T11:04:54.440Z,96
2023-01-02T11:14:54.554Z,96
2023-01-02T11:24:59.793Z,96
2023-01-02T11:34:55.433Z,96
2023-01-02T11:44:56.518Z,96
2023-01-02T11:54:57.559Z,96
2023-01-02T12:14:59.002Z,95
2023-01-02T12:25:00.032Z,95
2023-01-02T12:35:00.783Z,94
2023-01-02T12:45:01.468Z,94
2023-01-02T13:05:02.751Z,93
2023-01-02T13:15:03.572Z,93
2023-01-02T13:25:03.955Z,93
2023-01-02T13:35:04.348Z,93
2023-01-02T13:45:05.127Z,94
2023-01-02T13:55:05.773Z,93
2023-01-02T14:15:07.118Z,93
2023-01-02T14:25:07.983Z,93
2023-01-02T14:35:08.563Z,93
2023-01-02T14:45:09.639Z,93
2023-01-02T14:55:09.811Z,94
2023-01-02T15:25:12.005Z,95
2023-01-02T15:35:12.938Z,96
2023-01-02T15:45:13.908Z,96
2023-01-02T15:55:14.776Z,96
2023-01-02T16:05:15.776Z,95
2023-01-02T16:25:17.368Z,95
2023-01-02T16:45:18.424Z,95
2023-01-02T16:55:19.391Z,95
2023-01-02T17:35:22.030Z,95
2023-01-02T17:55:23.276Z,96
2023-01-02T18:05:23.670Z,97
2023-01-02T18:15:24.193Z,97
2023-01-02T18:25:24.681Z,98
2023-01-02T18:35:47.030Z,98
2023-01-02T18:45:25.171Z,98
2023-01-02T18:55:25.557Z,98
2023-01-02T19:05:25.824Z,97
2023-01-02T19:15:26.182Z,97
2023-01-02T19:25:26.624Z,97
2023-01-02T19:35:26.731Z,97
2023-01-02T19:45:27.251Z,97
2023-01-02T20:15:28.681Z,97
2023-01-02T21:45:33.362Z,96
2023-01-02T22:25:35.559Z,97
2023-01-02T22:55:37.233Z,97
2023-01-02T23:55:39.797Z,98
